Time;durP1;ratioP1;P1;durP2;ratioP2;P2;SDS_P1;SDS_P2;PMS_P1;PMS_P2;Temp;Humidity;BMP_temperature;BMP_pressure;BME280_temperature;BME280_humidity;BME280_pressure;Samples;Min_cycle;Max_cycle;Signal;HPM_P1;HPM_P2
2021/12/19 00:00:55;;;;;;;24.17;10.98;;;-1.70;99.90;;;;;;5047289;28;20444;-51
2021/12/19 00:08:52;;;;;;;21.88;9.90;;;-1.70;99.90;;;;;;5069567;28;20060;-54
2021/12/19 00:11:23;;;;;;;27.00;11.70;;;-1.60;99.90;;;;;;5062224;28;20040;-53
2021/12/19 00:13:51;;;;;;;24.58;11.55;;;-1.60;99.90;;;;;;5068742;28;20040;-55
2021/12/19 00:16:18;;;;;;;27.23;12.32;;;-1.60;99.90;;;;;;5061662;28;20032;-54
2021/12/19 00:18:46;;;;;;;21.42;10.68;;;-1.70;99.90;;;;;;5069147;28;20041;-54
2021/12/19 00:21:15;;;;;;;22.38;10.63;;;-1.60;99.90;;;;;;5061460;28;20040;-52
2021/12/19 00:23:44;;;;;;;27.50;10.70;;;-1.70;99.90;;;;;;5069000;28;20043;-51
2021/12/19 00:26:12;;;;;;;27.05;11.38;;;-1.60;99.90;;;;;;5072406;28;20528;-53
2021/12/19 00:28:39;;;;;;;24.10;11.38;;;-1.60;99.90;;;;;;5068842;28;20497;-52
2021/12/19 00:31:06;;;;;;;21.30;11.40;;;-1.70;99.90;;;;;;5072868;28;20101;-55
2021/12/19 00:33:34;;;;;;;24.08;11.05;;;-1.60;99.90;;;;;;5068752;28;20044;-53
2021/12/19 00:36:01;;;;;;;25.30;11.20;;;-1.60;99.90;;;;;;5059695;28;20126;-54
2021/12/19 00:38:28;;;;;;;20.65;10.23;;;-1.60;99.90;;;;;;5072204;28;20044;-55
2021/12/19 00:40:56;;;;;;;21.42;11.27;;;-1.60;99.90;;;;;;5067098;28;20116;-54
2021/12/19 00:43:33;;;;;;;26.77;10.15;;;-1.60;99.90;;;;;;5061690;28;20091;-55
2021/12/19 00:46:06;;;;;;;15.80;8.33;;;-1.70;99.90;;;;;;5059301;28;20045;-55
2021/12/19 00:48:35;;;;;;;24.00;10.38;;;-1.70;99.90;;;;;;5068277;28;20087;-56
2021/12/19 00:51:03;;;;;;;23.20;11.18;;;-1.70;99.90;;;;;;5059513;28;20041;-53
2021/12/19 00:53:30;;;;;;;25.77;10.75;;;-1.70;99.90;;;;;;5067919;28;20493;-54
2021/12/19 00:55:57;;;;;;;24.42;10.60;;;-1.70;99.90;;;;;;5059016;28;20053;-53
2021/12/19 00:58:24;;;;;;;22.42;10.70;;;-1.60;99.90;;;;;;5067344;28;20045;-55
2021/12/19 01:00:51;;;;;;;22.10;10.77;;;-1.60;99.90;;;;;;5058675;28;20087;-52
2021/12/19 01:03:18;;;;;;;24.40;10.07;;;-1.60;99.90;;;;;;5067343;28;20037;-51
2021/12/19 01:05:46;;;;;;;20.95;10.80;;;-1.60;99.90;;;;;;5058604;28;20041;-54
2021/12/19 01:08:13;;;;;;;11.35;6.38;;;-1.50;99.90;;;;;;5059556;28;20091;-51
2021/12/19 01:10:45;;;;;;;11.20;5.85;;;-1.60;99.90;;;;;;5071674;28;20056;-54
2021/12/19 01:13:14;;;;;;;17.48;7.47;;;-1.90;99.90;;;;;;5063362;28;20097;-53
2021/12/19 01:15:42;;;;;;;18.58;8.23;;;-2.00;99.90;;;;;;5071760;28;20136;-54
2021/12/19 01:18:09;;;;;;;14.73;8.10;;;-2.00;99.90;;;;;;5072043;28;20444;-54
2021/12/19 01:20:39;;;;;;;12.10;6.40;;;-2.00;99.90;;;;;;5072242;28;20040;-52
2021/12/19 01:23:07;;;;;;;13.20;6.85;;;-2.10;99.90;;;;;;5070919;28;20043;-53
2021/12/19 01:25:34;;;;;;;22.50;8.82;;;-2.20;99.90;;;;;;5071617;28;20044;-53
2021/12/19 01:28:02;;;;;;;15.60;7.75;;;-2.10;99.90;;;;;;5071213;28;20093;-55
2021/12/19 01:30:28;;;;;;;;;;;-2.10;99.90;;;;;;5072329;28;20098;-55
2021/12/19 01:32:55;;;;;;;20.40;7.35;;;-2.10;99.90;;;;;;5071869;28;19920;-53
2021/12/19 01:35:24;;;;;;;19.95;8.82;;;-2.20;99.90;;;;;;5071286;28;20048;-54
2021/12/19 01:37:52;;;;;;;19.23;8.65;;;-2.20;99.90;;;;;;5071744;28;20094;-53
2021/12/19 01:40:20;;;;;;;16.63;7.53;;;-2.20;99.90;;;;;;5071917;28;20510;-52
2021/12/19 01:42:51;;;;;;;17.70;8.10;;;-2.20;99.90;;;;;;5071707;28;20489;-54
2021/12/19 01:45:24;;;;;;;18.30;8.57;;;-2.20;99.90;;;;;;5071543;28;20040;-54
2021/12/19 01:47:50;;;;;;;17.45;8.10;;;-2.20;99.90;;;;;;5071628;28;20052;-56
2021/12/19 01:50:18;;;;;;;15.05;6.70;;;-2.20;99.90;;;;;;5071800;28;20514;-56
2021/12/19 01:52:46;;;;;;;13.07;6.43;;;-2.20;99.90;;;;;;5071607;28;20040;-52
2021/12/19 01:55:13;;;;;;;11.05;5.40;;;-2.20;99.90;;;;;;5067630;28;20041;-55
2021/12/19 01:57:40;;;;;;;9.68;4.72;;;-2.30;99.90;;;;;;5066972;28;20044;-55
2021/12/19 02:00:16;;;;;;;9.35;4.60;;;-2.30;99.90;;;;;;5071647;28;20036;-54
2021/12/19 02:02:43;;;;;;;9.32;4.72;;;-2.30;99.90;;;;;;5071514;28;20040;-52
2021/12/19 02:05:10;;;;;;;9.38;4.97;;;-2.40;99.90;;;;;;5071073;28;20505;-55
2021/12/19 02:07:37;;;;;;;7.93;4.15;;;-2.40;99.90;;;;;;5071388;28;20045;-54
2021/12/19 02:10:04;;;;;;;;;;;-2.50;99.90;;;;;;5071791;28;20086;-53
2021/12/19 02:12:31;;;;;;;12.95;3.45;;;-2.50;99.90;;;;;;5071327;28;20015;-52
2021/12/19 02:14:58;;;;;;;11.90;4.22;;;-2.40;99.90;;;;;;5071370;28;20075;-55
2021/12/19 02:17:25;;;;;;;7.80;3.95;;;-2.40;99.90;;;;;;5071022;28;20044;-53
2021/12/19 02:19:55;;;;;;;12.10;4.30;;;-2.40;99.90;;;;;;5071332;28;20119;-54
2021/12/19 02:22:22;;;;;;;9.07;4.63;;;-2.30;99.90;;;;;;5071436;28;20040;-56
2021/12/19 02:24:49;;;;;;;11.30;4.90;;;-2.30;99.90;;;;;;5071322;28;20048;-51
2021/12/19 02:27:16;;;;;;;9.25;4.63;;;-2.30;99.90;;;;;;5070873;28;20068;-56
2021/12/19 02:29:43;;;;;;;13.50;7.15;;;-2.30;99.90;;;;;;5071359;28;20068;-55
2021/12/19 02:32:11;;;;;;;16.38;7.18;;;-2.40;99.90;;;;;;5071422;28;20040;-51
2021/12/19 02:34:42;;;;;;;13.00;7.15;;;-2.50;99.90;;;;;;5071333;28;20138;-52
2021/12/19 02:37:54;;;;;;;13.85;6.90;;;-2.60;99.90;;;;;;5070802;28;20488;-54
2021/12/19 02:48:11;;;;;;;11.77;4.28;;;-2.70;99.90;;;;;;5071106;28;20033;-55
2021/12/19 02:50:49;;;;;;;9.93;4.43;;;-2.60;99.90;;;;;;5071137;28;20538;-53
2021/12/19 02:53:26;;;;;;;9.15;4.15;;;-2.60;99.90;;;;;;5071426;28;20435;-53
2021/12/19 02:55:53;;;;;;;7.38;3.35;;;-2.60;99.90;;;;;;5070794;28;20040;-54
2021/12/19 02:58:20;;;;;;;5.53;2.95;;;-2.60;99.90;;;;;;5071335;28;20073;-52
2021/12/19 03:00:48;;;;;;;7.25;3.35;;;-2.50;99.90;;;;;;5071024;28;20040;-53
2021/12/19 03:03:15;;;;;;;7.22;3.72;;;-2.60;99.90;;;;;;5070850;28;20559;-52
2021/12/19 03:05:43;;;;;;;8.45;3.50;;;-2.60;99.90;;;;;;5070688;28;20576;-53
2021/12/19 03:08:11;;;;;;;;;;;-2.60;99.90;;;;;;5071495;28;20463;-54
2021/12/19 03:18:31;;;;;;;7.25;3.30;;;-2.70;99.90;;;;;;5070814;28;20036;-56
2021/12/19 03:20:58;;;;;;;11.10;4.70;;;-2.70;99.90;;;;;;5069573;28;20477;-53
2021/12/19 03:23:26;;;;;;;9.43;4.90;;;-2.70;99.90;;;;;;5072893;28;20044;-53
2021/12/19 03:25:53;;;;;;;12.88;5.80;;;-2.80;99.90;;;;;;5074059;28;20109;-54
2021/12/19 03:28:20;;;;;;;11.10;5.40;;;-2.90;99.90;;;;;;5074303;28;20055;-54
2021/12/19 03:30:48;;;;;;;16.02;5.90;;;-3.00;99.90;;;;;;5074456;28;20094;-53
2021/12/19 03:33:15;;;;;;;11.52;5.00;;;-3.00;99.90;;;;;;5074059;28;20060;-54
2021/12/19 03:35:42;;;;;;;;;;;-3.10;99.90;;;;;;5074444;28;20090;-54
2021/12/19 03:38:13;;;;;;;9.55;4.40;;;-3.10;99.90;;;;;;5073940;28;20403;-54
2021/12/19 03:40:45;;;;;;;9.25;3.50;;;-3.10;99.90;;;;;;5074335;28;20044;-52
2021/12/19 03:43:19;;;;;;;7.18;4.03;;;-3.20;99.90;;;;;;5074123;28;20075;-56
2021/12/19 03:45:47;;;;;;;7.03;3.65;;;-3.10;99.90;;;;;;5073708;28;20381;-54
2021/12/19 03:48:16;;;;;;;9.05;4.20;;;-3.40;99.90;;;;;;5073972;28;20467;-53
2021/12/19 03:50:45;;;;;;;11.18;4.30;;;-3.10;99.90;;;;;;5073996;28;20044;-52
2021/12/19 03:53:13;;;;;;;9.20;4.05;;;-3.10;99.90;;;;;;5073994;28;20049;-52
2021/12/19 03:55:41;;;;;;;10.45;4.63;;;-3.00;99.90;;;;;;5073557;28;20451;-53
2021/12/19 03:58:11;;;;;;;15.02;5.15;;;-3.00;99.90;;;;;;5073792;28;20480;-55
2021/12/19 04:00:38;;;;;;;10.73;4.63;;;-3.10;99.90;;;;;;5073833;28;20097;-55
2021/12/19 04:03:09;;;;;;;10.73;5.53;;;-3.00;99.90;;;;;;5073590;28;20063;-56
2021/12/19 04:05:38;;;;;;;10.90;4.93;;;-3.00;99.90;;;;;;5073366;28;20048;-56
2021/12/19 04:08:05;;;;;;;9.23;4.28;;;-2.90;99.90;;;;;;5073534;28;20044;-55
2021/12/19 04:10:32;;;;;;;;;;;-2.90;99.90;;;;;;5074052;28;20040;-54
2021/12/19 04:13:00;;;;;;;11.10;4.18;;;-2.90;99.90;;;;;;5072360;28;20033;-52
2021/12/19 04:15:28;;;;;;;11.15;5.78;;;-2.90;99.90;;;;;;5073080;28;20059;-55
2021/12/19 04:17:55;;;;;;;10.73;5.30;;;-2.90;99.90;;;;;;5073355;28;20071;-52
2021/12/19 04:20:22;;;;;;;9.80;5.10;;;-3.00;99.90;;;;;;5073302;28;20044;-54
2021/12/19 04:22:50;;;;;;;;;;;-3.10;99.90;;;;;;5073765;28;20036;-54
2021/12/19 04:25:17;;;;;;;10.55;4.82;;;-3.00;99.90;;;;;;5072960;28;19920;-52
2021/12/19 04:27:45;;;;;;;16.58;4.70;;;-3.00;99.90;;;;;;5073342;28;20102;-54
2021/12/19 04:30:20;;;;;;;7.82;4.70;;;-3.00;99.90;;;;;;5072854;28;20040;-55
2021/12/19 04:32:57;;;;;;;11.10;4.85;;;-2.90;99.90;;;;;;5073141;28;20045;-53
2021/12/19 04:35:31;;;;;;;11.63;5.30;;;-2.90;99.90;;;;;;5073023;28;20466;-54
2021/12/19 04:40:56;;;;;;;13.88;5.40;;;-2.90;99.90;;;;;;5072996;28;20064;-54
2021/12/19 04:59:49;;;;;;;16.30;7.20;;;-2.90;99.90;;;;;;5072508;28;20086;-52
2021/12/19 05:02:17;;;;;;;13.80;7.30;;;-2.90;99.90;;;;;;5072538;28;20497;-55
2021/12/19 05:16:35;;;;;;;14.35;7.20;;;-3.00;99.90;;;;;;5091673;28;20047;-58
2021/12/19 05:19:07;;;;;;;17.13;7.65;;;-3.10;99.90;;;;;;5092503;28;20040;-58
2021/12/19 05:21:37;;;;;;;17.27;7.57;;;-3.20;99.90;;;;;;5087086;28;20090;-57
2021/12/19 05:26:52;;;;;;;19.58;8.73;;;-3.30;99.90;;;;;;5021545;28;20127;-57
2021/12/19 05:29:19;;;;;;;20.42;9.60;;;-3.30;99.90;;;;;;5072102;28;20127;-58
2021/12/19 05:31:46;;;;;;;33.10;16.90;;;-3.40;99.90;;;;;;5071942;28;20045;-57
2021/12/19 05:34:13;;;;;;;29.65;14.73;;;-3.40;99.90;;;;;;5072050;28;20067;-57
2021/12/19 05:47:26;;;;;;;18.17;7.03;;;-3.30;99.90;;;;;;5071374;28;20036;-56
2021/12/19 05:49:53;;;;;;;17.77;7.88;;;-3.30;99.90;;;;;;5071826;28;20098;-58
2021/12/19 05:52:20;;;;;;;17.20;8.80;;;-3.30;99.90;;;;;;5071690;28;20049;-56
2021/12/19 05:54:47;;;;;;;23.55;10.88;;;-3.30;99.90;;;;;;5071764;28;20055;-56
2021/12/19 05:57:15;;;;;;;28.30;12.43;;;-3.30;99.90;;;;;;5071137;28;20047;-58
2021/12/19 05:59:42;;;;;;;22.40;10.27;;;-3.30;99.90;;;;;;5071392;28;20049;-58
2021/12/19 06:02:08;;;;;;;23.85;10.18;;;-3.20;99.90;;;;;;5071585;28;20041;-57
2021/12/19 06:04:35;;;;;;;23.27;10.55;;;-3.20;99.90;;;;;;5071557;28;20044;-56
2021/12/19 06:07:02;;;;;;;24.50;11.10;;;-3.10;99.90;;;;;;5071202;28;20036;-57
2021/12/19 06:09:29;;;;;;;32.75;12.35;;;-3.10;99.90;;;;;;5071377;28;20242;-58
2021/12/19 06:11:56;;;;;;;23.00;11.50;;;-3.20;99.90;;;;;;5071354;28;20119;-58
2021/12/19 06:14:23;;;;;;;14.68;8.25;;;-3.20;99.90;;;;;;5071341;28;20496;-57
2021/12/19 06:16:50;;;;;;;14.23;6.15;;;-3.20;99.90;;;;;;5071114;28;20041;-57
2021/12/19 06:19:16;;;;;;;16.02;6.90;;;-3.20;99.90;;;;;;5071446;28;20044;-57
2021/12/19 06:21:43;;;;;;;24.65;9.25;;;-3.20;99.90;;;;;;5071246;28;20040;-58
2021/12/19 06:24:10;;;;;;;21.15;10.05;;;-3.30;99.90;;;;;;5071485;28;20044;-58
2021/12/19 06:26:37;;;;;;;22.58;8.35;;;-3.30;99.90;;;;;;5071025;28;20123;-58
2021/12/19 06:29:04;;;;;;;16.70;8.40;;;-3.30;99.90;;;;;;5071251;28;20109;-58
2021/12/19 06:31:31;;;;;;;16.15;7.85;;;-3.30;99.90;;;;;;5071389;28;20032;-58
2021/12/19 06:33:58;;;;;;;20.23;7.75;;;-3.30;99.90;;;;;;5071215;28;20052;-57
2021/12/19 06:36:26;;;;;;;15.50;7.82;;;-3.30;99.90;;;;;;5070946;28;20102;-58
2021/12/19 06:38:53;;;;;;;14.95;7.65;;;-3.20;99.90;;;;;;5071066;28;20127;-58
2021/12/19 06:41:21;;;;;;;20.08;8.27;;;-3.20;99.90;;;;;;5071263;28;20040;-58
2021/12/19 06:43:48;;;;;;;13.57;7.28;;;-3.20;99.90;;;;;;5071092;28;20111;-58
2021/12/19 06:46:15;;;;;;;;;;;-3.10;99.90;;;;;;5071003;28;20102;-57
2021/12/19 06:48:42;;;;;;;14.02;7.05;;;-3.10;99.90;;;;;;5071588;28;19955;-57
2021/12/19 06:51:09;;;;;;;15.80;7.75;;;-3.10;99.90;;;;;;5071113;28;20102;-58
2021/12/19 06:53:35;;;;;;;11.13;5.38;;;-3.10;99.90;;;;;;5071149;28;20500;-57
2021/12/19 06:56:03;;;;;;;18.63;7.70;;;-3.10;99.90;;;;;;5070242;28;20080;-58
2021/12/19 06:58:30;;;;;;;20.42;8.45;;;-3.10;99.90;;;;;;5073397;28;20094;-58
2021/12/19 07:00:56;;;;;;;22.83;8.45;;;-3.10;99.90;;;;;;5075057;28;20461;-57
2021/12/19 07:03:24;;;;;;;19.38;8.45;;;-3.10;99.90;;;;;;5074889;28;20165;-58
2021/12/19 07:05:51;;;;;;;19.83;8.38;;;-3.20;99.90;;;;;;5074150;28;20488;-58
2021/12/19 07:08:18;;;;;;;16.73;7.88;;;-3.20;99.90;;;;;;5074749;28;20782;-57
2021/12/19 07:10:45;;;;;;;19.95;8.30;;;-3.20;99.90;;;;;;5074560;28;20576;-57
2021/12/19 07:13:18;;;;;;;17.65;8.00;;;-3.30;99.90;;;;;;5074509;28;20040;-58
2021/12/19 07:15:46;;;;;;;15.43;8.35;;;-3.30;99.90;;;;;;5074038;28;20431;-57
2021/12/19 07:18:13;;;;;;;14.15;7.57;;;-3.30;99.90;;;;;;5074666;28;20079;-58
2021/12/19 07:20:42;;;;;;;16.88;7.95;;;-3.30;99.90;;;;;;5074622;28;20045;-58
2021/12/19 07:23:15;;;;;;;13.70;6.60;;;-3.30;99.90;;;;;;5074361;28;20048;-58
2021/12/19 07:25:42;;;;;;;15.30;7.15;;;-3.20;99.90;;;;;;5074076;28;20072;-58
2021/12/19 07:28:09;;;;;;;16.00;7.13;;;-3.20;99.90;;;;;;5074274;28;20044;-58
2021/12/19 07:30:37;;;;;;;17.20;8.48;;;-3.20;99.90;;;;;;5074215;28;20119;-56
2021/12/19 07:33:06;;;;;;;23.38;11.50;;;-3.10;99.90;;;;;;5074227;28;20052;-58
2021/12/19 07:35:37;;;;;;;29.17;11.70;;;-3.10;99.90;;;;;;5073705;28;20558;-58
2021/12/19 07:38:05;;;;;;;27.38;12.20;;;-3.00;99.90;;;;;;5074244;28;20052;-57
2021/12/19 07:40:38;;;;;;;24.83;11.43;;;-2.90;99.90;;;;;;5074009;28;20493;-57
2021/12/19 07:43:08;;;;;;;28.40;11.85;;;-2.90;99.90;;;;;;5074030;28;20066;-58
2021/12/19 07:45:35;;;;;;;27.92;13.73;;;-2.90;99.90;;;;;;5060343;28;20522;-58
2021/12/19 07:48:03;;;;;;;;;;;-2.90;99.90;;;;;;5094644;28;20094;-58
2021/12/19 07:50:31;;;;;;;18.40;9.25;;;-2.90;99.90;;;;;;5094197;28;20360;-57
2021/12/19 07:52:58;;;;;;;20.95;9.48;;;-2.90;99.90;;;;;;5093994;28;20044;-56
2021/12/19 07:55:25;;;;;;;28.00;13.45;;;-2.80;99.90;;;;;;5093759;28;20448;-57
2021/12/19 07:57:52;;;;;;;24.73;12.93;;;-2.80;99.90;;;;;;5094052;28;20074;-57
2021/12/19 08:00:20;;;;;;;28.30;14.10;;;-2.90;99.90;;;;;;5093355;28;20093;-58
2021/12/19 08:02:48;;;;;;;31.38;14.93;;;-2.90;99.90;;;;;;5093812;28;20093;-58
2021/12/19 08:05:17;;;;;;;32.42;15.13;;;-2.90;99.90;;;;;;5093653;28;20068;-57
2021/12/19 08:07:47;;;;;;;37.13;16.80;;;-2.80;99.90;;;;;;5093980;28;20047;-58
2021/12/19 08:12:46;;;;;;;29.20;14.23;;;-2.80;99.90;;;;;;5093590;28;20036;-58
2021/12/19 08:15:15;;;;;;;27.45;14.02;;;-2.70;99.90;;;;;;5093434;28;20115;-57
2021/12/19 08:17:43;;;;;;;25.13;13.73;;;-2.60;99.90;;;;;;5093707;28;20553;-58
2021/12/19 08:20:11;;;;;;;21.90;13.25;;;-2.60;99.90;;;;;;5093570;28;20044;-58
2021/12/19 08:22:38;;;;;;;25.75;13.65;;;-2.60;99.90;;;;;;5093579;28;20052;-57
2021/12/19 08:25:06;;;;;;;17.70;9.50;;;-2.50;99.90;;;;;;5093515;28;20051;-58
2021/12/19 08:27:34;;;;;;;19.73;9.13;;;-2.50;99.90;;;;;;5093261;28;20051;-58
2021/12/19 08:30:03;;;;;;;19.38;10.50;;;-2.70;99.90;;;;;;5093254;28;20079;-58
2021/12/19 08:32:30;;;;;;;18.92;10.05;;;-2.80;99.90;;;;;;5093519;28;20469;-57
2021/12/19 08:34:57;;;;;;;25.13;11.73;;;-2.80;99.90;;;;;;5093370;28;20097;-58
2021/12/19 08:37:24;;;;;;;24.25;10.27;;;-2.90;99.90;;;;;;5092857;28;20074;-58
2021/12/19 08:39:51;;;;;;;27.02;11.25;;;-2.80;99.90;;;;;;5093264;28;20448;-57
2021/12/19 08:42:18;;;;;;;24.20;12.15;;;-2.80;99.90;;;;;;5093098;28;20085;-57
2021/12/19 08:44:45;;;;;;;;;;;-2.80;99.90;;;;;;5093689;28;20048;-57
2021/12/19 08:47:12;;;;;;;20.90;10.77;;;-2.70;99.90;;;;;;5092682;28;19947;-58
2021/12/19 08:49:42;;;;;;;22.83;10.10;;;-2.60;99.90;;;;;;5092818;28;20058;-58
2021/12/19 08:52:10;;;;;;;21.60;11.07;;;-2.50;99.90;;;;;;5093041;28;20047;-58
2021/12/19 08:54:37;;;;;;;20.40;9.48;;;-2.40;99.90;;;;;;5092924;28;20114;-58
2021/12/19 08:57:05;;;;;;;;;;;-2.30;99.90;;;;;;5092690;28;20115;-57
2021/12/19 08:59:32;;;;;;;25.80;11.50;;;-2.30;99.90;;;;;;5092963;28;20301;-58
2021/12/19 09:02:01;;;;;;;;;;;-2.30;99.90;;;;;;5093208;28;20078;-58
2021/12/19 09:04:29;;;;;;;25.38;11.90;;;-2.20;99.90;;;;;;5092936;28;19920;-58
2021/12/19 09:06:58;;;;;;;29.60;12.38;;;-2.00;99.90;;;;;;5092316;28;20069;-58
2021/12/19 09:09:25;;;;;;;29.50;12.55;;;-1.90;99.90;;;;;;5091977;28;20059;-58
2021/12/19 09:11:52;;;;;;;26.70;12.88;;;-1.80;99.90;;;;;;5092522;28;20395;-58
2021/12/19 09:14:19;;;;;;;25.88;12.25;;;-1.80;99.90;;;;;;5092675;28;20452;-59
2021/12/19 09:16:46;;;;;;;21.92;12.20;;;-1.70;99.90;;;;;;5092000;28;20093;-58
2021/12/19 09:19:14;;;;;;;;;;;-1.60;99.90;;;;;;5092858;28;20059;-58
2021/12/19 09:21:41;;;;;;;27.38;13.00;;;-1.60;99.90;;;;;;5091724;28;20469;-58
2021/12/19 09:24:08;;;;;;;30.05;15.32;;;-1.60;99.90;;;;;;5092448;28;20641;-57
2021/12/19 09:26:36;;;;;;;34.28;16.85;;;-1.50;99.90;;;;;;5091974;28;20086;-57
2021/12/19 09:29:03;;;;;;;;;;;-1.50;99.90;;;;;;5092771;28;20044;-59
2021/12/19 09:31:30;;;;;;;23.58;11.38;;;-1.30;99.90;;;;;;5092343;28;19920;-58
2021/12/19 09:33:57;;;;;;;28.98;11.45;;;-1.20;99.90;;;;;;5091996;28;20044;-58
2021/12/19 09:36:24;;;;;;;20.83;10.85;;;-1.00;99.90;;;;;;5091741;28;20040;-58
2021/12/19 09:38:52;;;;;;;20.20;10.90;;;-0.80;99.90;;;;;;5092119;28;20105;-58
2021/12/19 09:41:28;;;;;;;;;;;-0.70;99.90;;;;;;5092648;28;20619;-58
2021/12/19 09:44:02;;;;;;;23.00;11.88;;;-0.60;99.90;;;;;;5092077;28;20522;-57
2021/12/19 09:46:36;;;;;;;21.38;11.10;;;-0.60;99.90;;;;;;5091413;28;20067;-58
2021/12/19 09:49:05;;;;;;;22.50;11.60;;;-0.60;99.90;;;;;;5091889;28;20090;-57
2021/12/19 09:51:32;;;;;;;22.00;11.63;;;-0.60;99.90;;;;;;5091923;28;20075;-58
2021/12/19 09:53:59;;;;;;;21.95;10.95;;;-0.60;99.90;;;;;;5091724;28;20044;-57
2021/12/19 09:56:27;;;;;;;20.73;10.52;;;-0.50;99.90;;;;;;5091489;28;20040;-58
2021/12/19 09:58:54;;;;;;;20.80;10.43;;;-0.40;99.90;;;;;;5091931;28;20038;-58
2021/12/19 10:01:21;;;;;;;20.65;10.07;;;-0.30;99.90;;;;;;5091747;28;20093;-58
2021/12/19 10:03:48;;;;;;;19.20;9.55;;;-0.10;99.90;;;;;;5091570;28;20058;-58
2021/12/19 10:06:22;;;;;;;19.17;9.15;;;0.00;99.90;;;;;;5091430;28;20040;-59
2021/12/19 10:09:09;;;;;;;17.52;8.68;;;0.10;99.90;;;;;;5091952;28;20052;-59
2021/12/19 10:12:12;;;;;;;19.13;9.15;;;0.20;99.90;;;;;;5091422;28;20036;-58
2021/12/19 10:14:33;;;;;;;18.27;9.30;;;0.30;99.90;;;;;;5091700;28;20083;-58
2021/12/19 10:17:05;;;;;;;15.30;8.88;;;0.40;99.90;;;;;;5091352;28;20090;-58
2021/12/19 10:19:46;;;;;;;18.42;9.98;;;0.30;99.90;;;;;;5091581;28;20063;-59
2021/12/19 10:22:37;;;;;;;17.67;9.48;;;0.30;99.90;;;;;;5091337;28;20074;-60
2021/12/19 10:25:07;;;;;;;15.13;8.63;;;0.30;99.90;;;;;;5091430;28;20578;-59
2021/12/19 10:27:38;;;;;;;19.63;9.10;;;0.40;99.90;;;;;;5086290;28;20036;-62
2021/12/19 10:30:29;;;;;;;15.38;8.43;;;0.50;99.90;;;;;;5085716;28;20040;-62
2021/12/19 10:33:17;;;;;;;16.63;8.57;;;0.60;99.90;;;;;;5083098;28;20452;-62
2021/12/19 10:35:47;;;;;;;16.45;8.02;;;0.70;99.90;;;;;;5093386;28;20106;-62
2021/12/19 10:38:19;;;;;;;20.08;7.95;;;0.70;99.90;;;;;;5092748;28;20111;-63
2021/12/19 10:40:55;;;;;;;14.40;7.40;;;0.70;99.90;;;;;;5095231;28;20721;-62
2021/12/19 10:43:27;;;;;;;15.57;7.93;;;0.70;99.90;;;;;;5093507;28;20075;-62
2021/12/19 10:46:00;;;;;;;13.93;8.13;;;0.80;99.90;;;;;;5092330;28;20040;-61
2021/12/19 10:48:43;;;;;;;12.52;7.50;;;0.70;99.90;;;;;;5095169;28;20135;-61
2021/12/19 10:51:19;;;;;;;12.70;7.15;;;0.70;99.90;;;;;;5094600;28;20032;-62
2021/12/19 10:53:54;;;;;;;13.30;7.05;;;0.70;99.90;;;;;;5094617;28;20514;-61
2021/12/19 10:56:26;;;;;;;14.48;7.28;;;0.80;99.90;;;;;;5075587;28;20217;-61
2021/12/19 10:59:01;;;;;;;16.50;7.03;;;0.80;99.90;;;;;;5092143;28;20056;-61
2021/12/19 11:01:30;;;;;;;13.05;6.90;;;1.00;99.90;;;;;;5094762;28;20047;-60
2021/12/19 11:04:03;;;;;;;11.73;6.55;;;1.00;99.90;;;;;;5094258;28;20036;-61
2021/12/19 11:06:42;;;;;;;11.40;6.57;;;1.10;99.90;;;;;;5094191;28;20040;-61
2021/12/19 11:09:15;;;;;;;11.85;6.80;;;1.20;99.90;;;;;;5094499;28;20059;-61
2021/12/19 11:11:51;;;;;;;11.65;6.40;;;1.30;99.90;;;;;;5094264;28;20085;-62
2021/12/19 11:14:32;;;;;;;13.00;6.60;;;1.30;99.90;;;;;;5103388;22;20523;-60
2021/12/19 11:17:01;;;;;;;13.30;6.18;;;1.30;99.90;;;;;;5091294;28;20048;-61
2021/12/19 11:19:29;;;;;;;14.70;6.75;;;1.40;99.90;;;;;;5093709;28;20044;-61
2021/12/19 11:22:25;;;;;;;11.68;6.40;;;1.50;99.90;;;;;;5090041;28;20055;-60
2021/12/19 11:24:54;;;;;;;13.75;6.35;;;1.60;99.90;;;;;;5069544;28;20040;-61
2021/12/19 11:27:21;;;;;;;13.73;6.68;;;1.50;99.90;;;;;;5064999;28;20325;-60
2021/12/19 11:29:56;;;;;;;12.30;6.15;;;1.60;99.90;;;;;;5070205;28;20044;-60
2021/12/19 11:32:31;;;;;;;11.65;6.15;;;1.60;99.90;;;;;;5074022;28;20516;-61
2021/12/19 11:35:09;;;;;;;10.98;6.32;;;1.70;99.90;;;;;;5063561;28;20408;-61
2021/12/19 11:37:53;;;;;;;13.00;7.03;;;1.80;99.90;;;;;;5071260;28;20094;-61
2021/12/19 11:40:22;;;;;;;10.77;6.60;;;1.90;99.90;;;;;;5064966;28;20065;-61
2021/12/19 11:42:59;;;;;;;12.85;6.70;;;2.00;99.90;;;;;;5069803;28;20036;-61
2021/12/19 11:48:21;;;;;;;10.93;5.95;;;2.10;99.90;;;;;;5071801;28;20048;-61
2021/12/19 11:51:00;;;;;;;14.20;7.13;;;2.20;99.90;;;;;;5066091;28;20127;-61
2021/12/19 11:53:33;;;;;;;13.23;6.35;;;2.30;99.90;;;;;;5068184;28;20563;-61
2021/12/19 11:56:04;;;;;;;11.88;6.07;;;2.20;99.90;;;;;;5067768;28;20452;-60
2021/12/19 11:58:48;;;;;;;11.00;6.25;;;2.20;99.90;;;;;;5067272;28;20466;-60
2021/12/19 12:01:19;;;;;;;12.30;6.40;;;2.30;99.90;;;;;;5064352;28;20036;-60
2021/12/19 12:03:48;;;;;;;14.55;6.45;;;2.40;99.90;;;;;;5065349;28;20504;-60
2021/12/19 12:06:21;;;;;;;10.30;5.93;;;2.50;99.90;;;;;;5064209;28;20047;-61
2021/12/19 12:09:15;;;;;;;11.82;6.78;;;2.50;99.90;;;;;;5065061;28;20045;-60
2021/12/19 12:12:00;;;;;;;11.13;6.10;;;2.50;99.90;;;;;;5069416;28;20532;-61
2021/12/19 12:14:35;;;;;;;11.55;6.13;;;2.60;99.90;;;;;;5061629;28;20451;-61
2021/12/19 12:17:09;;;;;;;9.38;5.80;;;2.70;99.90;;;;;;5070524;28;20048;-60
2021/12/19 12:19:56;;;;;;;13.57;6.97;;;2.70;99.90;;;;;;5066325;28;20173;-60
2021/12/19 12:25:11;;;;;;;10.97;6.13;;;2.70;99.90;;;;;;5070327;28;20500;-60
2021/12/19 12:27:40;;;;;;;12.30;6.03;;;2.70;99.90;;;;;;5071120;28;20279;-59
2021/12/19 12:30:32;;;;;;;11.55;5.45;;;2.70;99.90;;;;;;5068491;28;20679;-60
2021/12/19 12:33:01;;;;;;;12.48;5.35;;;2.70;99.90;;;;;;5064954;28;20097;-62
2021/12/19 12:35:31;;;;;;;9.55;5.55;;;2.90;99.90;;;;;;5065514;28;20451;-62
2021/12/19 12:38:00;;;;;;;9.27;5.45;;;2.80;99.90;;;;;;5065725;28;20045;-59
2021/12/19 12:40:47;;;;;;;8.73;5.68;;;2.80;99.90;;;;;;5070526;28;20044;-62
2021/12/19 12:43:16;;;;;;;8.88;4.82;;;2.80;99.90;;;;;;5067358;28;20444;-62
2021/12/19 12:46:00;;;;;;;13.07;5.65;;;2.90;99.90;;;;;;5067540;28;20032;-59
2021/12/19 12:48:37;;;;;;;8.35;4.75;;;2.90;99.90;;;;;;5066847;28;20032;-62
2021/12/19 12:51:08;;;;;;;8.85;5.03;;;3.00;99.90;;;;;;5065889;28;20055;-62
2021/12/19 12:53:48;;;;;;;10.27;5.13;;;3.00;99.90;;;;;;5067225;28;20473;-62
2021/12/19 12:56:30;;;;;;;8.88;4.50;;;3.10;99.90;;;;;;5059829;28;20043;-62
2021/12/19 12:58:57;;;;;;;10.63;5.38;;;3.10;99.90;;;;;;5070358;28;20041;-62
2021/12/19 13:01:26;;;;;;;8.57;5.10;;;3.10;99.90;;;;;;5070794;28;20518;-62
2021/12/19 13:03:54;;;;;;;10.23;5.30;;;3.20;99.90;;;;;;5063791;28;20136;-62
2021/12/19 13:06:44;;;;;;;10.02;5.78;;;3.20;99.90;;;;;;5069714;28;20048;-62
2021/12/19 13:09:23;;;;;;;11.90;5.90;;;3.30;99.90;;;;;;5067602;28;20124;-62
2021/12/19 13:11:57;;;;;;;8.80;5.35;;;3.30;99.90;;;;;;5069346;28;20102;-61
2021/12/19 13:14:29;;;;;;;9.57;5.35;;;3.30;99.90;;;;;;5072085;28;20440;-62
2021/12/19 13:17:00;;;;;;;9.23;5.53;;;3.30;99.90;;;;;;5071942;28;20033;-62
2021/12/19 13:19:53;;;;;;;12.15;5.82;;;3.40;99.90;;;;;;5072231;28;20044;-62
2021/12/19 13:22:36;;;;;;;9.68;5.60;;;3.40;99.90;;;;;;5067412;28;20048;-62
2021/12/19 13:25:11;;;;;;;8.65;5.22;;;3.40;99.90;;;;;;5071025;28;20049;-60
2021/12/19 13:27:51;;;;;;;10.60;5.80;;;3.50;99.90;;;;;;5072022;28;20055;-62
2021/12/19 13:30:24;;;;;;;15.50;7.25;;;3.50;99.90;;;;;;5072339;28;20448;-62
2021/12/19 13:32:52;;;;;;;11.93;6.38;;;3.40;99.90;;;;;;5072039;28;20033;-62
2021/12/19 13:35:33;;;;;;;12.02;6.78;;;3.30;99.90;;;;;;5071332;28;20554;-62
2021/12/19 13:38:04;;;;;;;12.15;6.50;;;3.10;99.90;;;;;;5072110;28;20045;-62
2021/12/19 13:40:35;;;;;;;10.93;6.95;;;3.00;99.90;;;;;;5071762;28;20489;-62
2021/12/19 13:43:08;;;;;;;16.75;6.57;;;3.00;99.90;;;;;;5071858;28;20443;-60
2021/12/19 13:45:50;;;;;;;19.35;7.13;;;3.00;99.90;;;;;;5070661;28;20052;-62
2021/12/19 13:48:30;;;;;;;15.38;7.80;;;2.90;99.90;;;;;;5071439;28;20041;-62
2021/12/19 13:51:17;;;;;;;15.18;7.63;;;2.80;99.90;;;;;;5071322;28;20063;-62
2021/12/19 13:53:46;;;;;;;13.55;6.75;;;2.80;99.90;;;;;;5071605;28;20052;-62
2021/12/19 13:56:25;;;;;;;16.60;6.70;;;2.70;99.90;;;;;;5071389;28;20049;-62
2021/12/19 13:58:55;;;;;;;17.00;7.85;;;2.70;99.90;;;;;;5071772;28;20459;-61
2021/12/19 14:01:25;;;;;;;22.58;9.02;;;2.60;99.90;;;;;;5071043;28;20045;-62
2021/12/19 14:03:56;;;;;;;13.50;7.72;;;2.60;99.90;;;;;;5071015;28;20173;-62
2021/12/19 14:06:32;;;;;;;13.43;7.80;;;2.50;99.90;;;;;;5070254;28;20051;-62
2021/12/19 14:09:02;;;;;;;19.48;9.57;;;2.50;99.90;;;;;;5069341;28;20055;-62
2021/12/19 14:11:31;;;;;;;13.85;6.68;;;2.40;99.90;;;;;;5065680;28;20052;-61
2021/12/19 14:14:07;;;;;;;17.20;8.80;;;2.30;99.90;;;;;;5069399;28;20102;-61